sensor_id;sensor_type;location;lat;lon;timestamp;P1;durP1;ratioP1;P2;durP2;ratioP2
38220;SDS011;24023;51.280;7.148;2023-09-19T00:00:13;5.2;;;1.3;;
38220;SDS011;24023;51.280;7.148;2023-09-19T00:05:09;5.2;;;1.3;;
38220;SDS011;24023;51.280;7.148;2023-09-19T00:10:09;4.2;;;1.3;;
38220;SDS011;24023;51.280;7.148;2023-09-19T00:15:08;4.2;;;1.3;;
38220;SDS011;24023;51.280;7.148;2023-09-19T00:20:13;5.5;;;1.3;;
38220;SDS011;24023;51.280;7.148;2023-09-19T00:25:07;5.5;;;1.3;;
38220;SDS011;24023;51.280;7.148;2023-09-19T00:30:14;5.5;;;1.3;;
38220;SDS011;24023;51.280;7.148;2023-09-19T00:35:08;6.3;;;1.4;;
38220;SDS011;24023;51.280;7.148;2023-09-19T00:40:12;6.3;;;1.4;;
38220;SDS011;24023;51.280;7.148;2023-09-19T00:45:11;4.6;;;1.4;;
38220;SDS011;24023;51.280;7.148;2023-09-19T00:50:08;4.6;;;1.4;;
38220;SDS011;24023;51.280;7.148;2023-09-19T00:55:07;4.6;;;1.4;;
38220;SDS011;24023;51.280;7.148;2023-09-19T01:00:15;5.2;;;1.3;;
38220;SDS011;24023;51.280;7.148;2023-09-19T01:05:07;5.2;;;1.3;;
38220;SDS011;24023;51.280;7.148;2023-09-19T01:10:10;4.5;;;1.5;;
38220;SDS011;24023;51.280;7.148;2023-09-19T01:15:11;4.5;;;1.5;;
38220;SDS011;24023;51.280;7.148;2023-09-19T01:20:11;4.5;;;1.5;;
38220;SDS011;24023;51.280;7.148;2023-09-19T01:25:13;5.5;;;1.4;;
38220;SDS011;24023;51.280;7.148;2023-09-19T01:30:09;5.5;;;1.4;;
38220;SDS011;24023;51.280;7.148;2023-09-19T01:35:12;7.6;;;1.5;;
38220;SDS011;24023;51.280;7.148;2023-09-19T01:40:16;7.6;;;1.5;;
38220;SDS011;24023;51.280;7.148;2023-09-19T01:45:11;5.4;;;1.2;;
38220;SDS011;24023;51.280;7.148;2023-09-19T01:50:12;5.4;;;1.2;;
38220;SDS011;24023;51.280;7.148;2023-09-19T01:55:08;5.4;;;1.2;;
38220;SDS011;24023;51.280;7.148;2023-09-19T02:00:12;6.9;;;1.6;;
38220;SDS011;24023;51.280;7.148;2023-09-19T02:05:07;4.7;;;1.4;;
38220;SDS011;24023;51.280;7.148;2023-09-19T02:10:10;4.7;;;1.4;;
38220;SDS011;24023;51.280;7.148;2023-09-19T02:15:09;4.7;;;1.4;;
38220;SDS011;24023;51.280;7.148;2023-09-19T02:20:11;5.8;;;1.6;;
38220;SDS011;24023;51.280;7.148;2023-09-19T02:25:08;5.8;;;1.6;;
38220;SDS011;24023;51.280;7.148;2023-09-19T02:30:10;5.0;;;1.5;;
38220;SDS011;24023;51.280;7.148;2023-09-19T02:35:07;6.7;;;1.5;;
38220;SDS011;24023;51.280;7.148;2023-09-19T02:40:18;6.7;;;1.5;;
38220;SDS011;24023;51.280;7.148;2023-09-19T02:45:10;6.7;;;1.5;;
38220;SDS011;24023;51.280;7.148;2023-09-19T02:50:10;7.2;;;1.4;;
38220;SDS011;24023;51.280;7.148;2023-09-19T02:55:07;4.6;;;1.3;;
38220;SDS011;24023;51.280;7.148;2023-09-19T03:00:14;4.6;;;1.3;;
38220;SDS011;24023;51.280;7.148;2023-09-19T03:05:11;4.6;;;1.3;;
38220;SDS011;24023;51.280;7.148;2023-09-19T03:10:08;5.1;;;1.5;;
38220;SDS011;24023;51.280;7.148;2023-09-19T03:15:08;5.1;;;1.5;;
38220;SDS011;24023;51.280;7.148;2023-09-19T03:20:10;6.6;;;1.4;;
38220;SDS011;24023;51.280;7.148;2023-09-19T03:25:08;6.6;;;1.4;;
38220;SDS011;24023;51.280;7.148;2023-09-19T03:30:13;6.6;;;1.4;;
38220;SDS011;24023;51.280;7.148;2023-09-19T03:35:07;6.0;;;1.4;;
38220;SDS011;24023;51.280;7.148;2023-09-19T03:40:08;6.0;;;1.4;;
38220;SDS011;24023;51.280;7.148;2023-09-19T03:45:12;6.7;;;1.5;;
38220;SDS011;24023;51.280;7.148;2023-09-19T03:50:11;6.7;;;1.5;;
38220;SDS011;24023;51.280;7.148;2023-09-19T03:55:07;6.7;;;1.5;;
38220;SDS011;24023;51.280;7.148;2023-09-19T04:00:15;6.5;;;1.7;;
38220;SDS011;24023;51.280;7.148;2023-09-19T04:05:07;6.5;;;1.7;;
38220;SDS011;24023;51.280;7.148;2023-09-19T04:10:09;7.0;;;1.5;;
38220;SDS011;24023;51.280;7.148;2023-09-19T04:15:09;7.0;;;1.5;;
38220;SDS011;24023;51.280;7.148;2023-09-19T04:20:09;5.8;;;1.5;;
38220;SDS011;24023;51.280;7.148;2023-09-19T04:25:08;5.8;;;1.5;;
38220;SDS011;24023;51.280;7.148;2023-09-19T04:30:11;5.8;;;1.5;;
38220;SDS011;24023;51.280;7.148;2023-09-19T04:35:09;7.5;;;2.0;;
38220;SDS011;24023;51.280;7.148;2023-09-19T04:40:12;7.5;;;2.0;;
38220;SDS011;24023;51.280;7.148;2023-09-19T04:45:10;5.8;;;1.4;;
38220;SDS011;24023;51.280;7.148;2023-09-19T04:50:11;5.8;;;1.4;;
38220;SDS011;24023;51.280;7.148;2023-09-19T04:55:07;5.8;;;1.4;;
38220;SDS011;24023;51.280;7.148;2023-09-19T05:00:13;6.0;;;1.5;;
38220;SDS011;24023;51.280;7.148;2023-09-19T05:05:07;6.0;;;1.5;;
38220;SDS011;24023;51.280;7.148;2023-09-19T05:10:08;5.3;;;1.3;;
38220;SDS011;24023;51.280;7.148;2023-09-19T05:15:08;5.3;;;1.3;;
38220;SDS011;24023;51.280;7.148;2023-09-19T05:20:12;5.3;;;1.3;;
38220;SDS011;24023;51.280;7.148;2023-09-19T05:25:07;6.2;;;1.8;;
38220;SDS011;24023;51.280;7.148;2023-09-19T05:30:10;6.2;;;1.8;;
38220;SDS011;24023;51.280;7.148;2023-09-19T05:35:09;10.4;;;3.1;;
38220;SDS011;24023;51.280;7.148;2023-09-19T05:40:10;10.4;;;3.1;;
38220;SDS011;24023;51.280;7.148;2023-09-19T05:45:12;7.7;;;2.2;;
38220;SDS011;24023;51.280;7.148;2023-09-19T05:50:09;7.7;;;2.2;;
38220;SDS011;24023;51.280;7.148;2023-09-19T05:55:08;7.7;;;2.2;;
38220;SDS011;24023;51.280;7.148;2023-09-19T06:00:14;6.4;;;1.8;;
38220;SDS011;24023;51.280;7.148;2023-09-19T06:05:07;6.4;;;1.8;;
38220;SDS011;24023;51.280;7.148;2023-09-19T06:10:09;7.5;;;2.0;;
38220;SDS011;24023;51.280;7.148;2023-09-19T06:15:09;7.5;;;2.0;;
38220;SDS011;24023;51.280;7.148;2023-09-19T06:20:12;7.5;;;2.0;;
38220;SDS011;24023;51.280;7.148;2023-09-19T06:25:08;6.8;;;1.7;;
38220;SDS011;24023;51.280;7.148;2023-09-19T06:30:10;6.8;;;1.7;;
38220;SDS011;24023;51.280;7.148;2023-09-19T06:35:09;7.6;;;1.6;;
38220;SDS011;24023;51.280;7.148;2023-09-19T06:40:09;7.6;;;1.6;;
38220;SDS011;24023;51.280;7.148;2023-09-19T06:45:12;7.6;;;1.6;;
38220;SDS011;24023;51.280;7.148;2023-09-19T06:50:13;7.6;;;1.8;;
38220;SDS011;24023;51.280;7.148;2023-09-19T06:55:07;7.6;;;1.8;;
38220;SDS011;24023;51.280;7.148;2023-09-19T07:00:18;7.6;;;1.9;;
38220;SDS011;24023;51.280;7.148;2023-09-19T07:05:07;7.6;;;1.9;;
38220;SDS011;24023;51.280;7.148;2023-09-19T07:10:11;8.5;;;2.1;;
38220;SDS011;24023;51.280;7.148;2023-09-19T07:15:08;8.5;;;2.1;;
38220;SDS011;24023;51.280;7.148;2023-09-19T07:20:10;8.5;;;2.1;;
38220;SDS011;24023;51.280;7.148;2023-09-19T07:25:07;8.8;;;2.1;;
38220;SDS011;24023;51.280;7.148;2023-09-19T07:30:10;8.8;;;2.1;;
38220;SDS011;24023;51.280;7.148;2023-09-19T07:35:07;8.1;;;2.0;;
38220;SDS011;24023;51.280;7.148;2023-09-19T07:40:10;8.1;;;2.0;;
38220;SDS011;24023;51.280;7.148;2023-09-19T07:45:10;8.1;;;2.0;;
38220;SDS011;24023;51.280;7.148;2023-09-19T07:50:09;7.3;;;1.9;;
38220;SDS011;24023;51.280;7.148;2023-09-19T07:55:09;7.3;;;1.9;;
38220;SDS011;24023;51.280;7.148;2023-09-19T08:00:13;7.3;;;2.0;;
38220;SDS011;24023;51.280;7.148;2023-09-19T08:05:10;7.3;;;2.0;;
38220;SDS011;24023;51.280;7.148;2023-09-19T08:10:14;7.3;;;2.0;;
38220;SDS011;24023;51.280;7.148;2023-09-19T08:15:10;5.9;;;1.9;;
38220;SDS011;24023;51.280;7.148;2023-09-19T08:20:16;5.9;;;1.9;;
38220;SDS011;24023;51.280;7.148;2023-09-19T08:25:07;9.9;;;2.0;;
38220;SDS011;24023;51.280;7.148;2023-09-19T08:30:11;9.9;;;2.0;;
38220;SDS011;24023;51.280;7.148;2023-09-19T08:35:07;6.9;;;1.6;;
38220;SDS011;24023;51.280;7.148;2023-09-19T08:40:09;6.9;;;1.6;;
38220;SDS011;24023;51.280;7.148;2023-09-19T08:45:12;6.9;;;1.6;;
38220;SDS011;24023;51.280;7.148;2023-09-19T08:50:13;7.4;;;1.7;;
38220;SDS011;24023;51.280;7.148;2023-09-19T08:55:07;7.4;;;1.7;;
38220;SDS011;24023;51.280;7.148;2023-09-19T09:00:12;6.6;;;1.8;;
38220;SDS011;24023;51.280;7.148;2023-09-19T09:05:07;6.6;;;1.8;;
38220;SDS011;24023;51.280;7.148;2023-09-19T09:10:09;6.6;;;1.8;;
38220;SDS011;24023;51.280;7.148;2023-09-19T09:15:11;5.3;;;1.6;;
38220;SDS011;24023;51.280;7.148;2023-09-19T09:20:10;5.3;;;1.6;;
38220;SDS011;24023;51.280;7.148;2023-09-19T09:25:08;6.4;;;1.7;;
38220;SDS011;24023;51.280;7.148;2023-09-19T09:30:10;6.4;;;1.7;;
38220;SDS011;24023;51.280;7.148;2023-09-19T09:35:09;6.4;;;1.7;;
38220;SDS011;24023;51.280;7.148;2023-09-19T09:40:19;7.5;;;1.9;;
38220;SDS011;24023;51.280;7.148;2023-09-19T09:45:13;9.3;;;1.8;;
38220;SDS011;24023;51.280;7.148;2023-09-19T09:50:25;9.3;;;1.8;;
38220;SDS011;24023;51.280;7.148;2023-09-19T09:55:08;4.7;;;1.5;;
38220;SDS011;24023;51.280;7.148;2023-09-19T10:00:20;4.7;;;1.5;;
38220;SDS011;24023;51.280;7.148;2023-09-19T10:05:14;6.9;;;1.7;;
38220;SDS011;24023;51.280;7.148;2023-09-19T10:10:28;6.9;;;1.7;;
38220;SDS011;24023;51.280;7.148;2023-09-19T10:15:11;6.9;;;1.7;;
38220;SDS011;24023;51.280;7.148;2023-09-19T10:20:19;5.7;;;1.6;;
38220;SDS011;24023;51.280;7.148;2023-09-19T10:25:08;5.7;;;1.6;;
38220;SDS011;24023;51.280;7.148;2023-09-19T10:30:11;5.0;;;1.6;;
38220;SDS011;24023;51.280;7.148;2023-09-19T10:35:07;7.0;;;1.5;;
38220;SDS011;24023;51.280;7.148;2023-09-19T10:40:09;7.0;;;1.5;;
38220;SDS011;24023;51.280;7.148;2023-09-19T10:45:13;5.1;;;1.6;;
38220;SDS011;24023;51.280;7.148;2023-09-19T10:50:12;5.1;;;1.6;;
38220;SDS011;24023;51.280;7.148;2023-09-19T10:55:07;5.1;;;1.6;;
38220;SDS011;24023;51.280;7.148;2023-09-19T11:00:23;6.1;;;1.6;;
38220;SDS011;24023;51.280;7.148;2023-09-19T11:05:11;6.1;;;1.6;;
38220;SDS011;24023;51.280;7.148;2023-09-19T11:10:14;6.1;;;1.2;;
38220;SDS011;24023;51.280;7.148;2023-09-19T11:15:11;6.1;;;1.2;;
38220;SDS011;24023;51.280;7.148;2023-09-19T11:20:24;6.1;;;1.2;;
38220;SDS011;24023;51.280;7.148;2023-09-19T11:25:39;4.8;;;1.7;;
38220;SDS011;24023;51.280;7.148;2023-09-19T11:30:26;4.8;;;1.7;;
38220;SDS011;24023;51.280;7.148;2023-09-19T11:35:08;4.4;;;1.4;;
38220;SDS011;24023;51.280;7.148;2023-09-19T11:40:15;4.7;;;1.3;;
38220;SDS011;24023;51.280;7.148;2023-09-19T11:45:42;4.7;;;1.3;;
38220;SDS011;24023;51.280;7.148;2023-09-19T11:50:11;4.7;;;1.3;;
38220;SDS011;24023;51.280;7.148;2023-09-19T11:55:09;5.2;;;1.1;;
38220;SDS011;24023;51.280;7.148;2023-09-19T12:00:16;4.8;;;1.3;;
38220;SDS011;24023;51.280;7.148;2023-09-19T12:05:07;4.8;;;1.3;;
38220;SDS011;24023;51.280;7.148;2023-09-19T12:10:12;5.3;;;1.4;;
38220;SDS011;24023;51.280;7.148;2023-09-19T12:15:09;5.3;;;1.4;;
38220;SDS011;24023;51.280;7.148;2023-09-19T12:20:12;5.3;;;1.5;;
38220;SDS011;24023;51.280;7.148;2023-09-19T12:25:07;5.3;;;1.5;;
38220;SDS011;24023;51.280;7.148;2023-09-19T12:30:09;4.4;;;1.4;;
38220;SDS011;24023;51.280;7.148;2023-09-19T12:35:26;4.4;;;1.4;;
38220;SDS011;24023;51.280;7.148;2023-09-19T12:40:17;4.3;;;1.4;;
38220;SDS011;24023;51.280;7.148;2023-09-19T12:45:10;6.2;;;1.6;;
38220;SDS011;24023;51.280;7.148;2023-09-19T12:50:13;6.2;;;1.6;;
38220;SDS011;24023;51.280;7.148;2023-09-19T12:55:18;4.3;;;1.4;;
38220;SDS011;24023;51.280;7.148;2023-09-19T13:00:12;4.3;;;1.4;;
38220;SDS011;24023;51.280;7.148;2023-09-19T13:05:07;5.1;;;1.2;;
38220;SDS011;24023;51.280;7.148;2023-09-19T13:10:09;5.1;;;1.2;;
38220;SDS011;24023;51.280;7.148;2023-09-19T13:15:14;5.1;;;1.2;;
38220;SDS011;24023;51.280;7.148;2023-09-19T13:20:20;5.9;;;1.3;;
38220;SDS011;24023;51.280;7.148;2023-09-19T13:25:08;4.0;;;1.2;;
38220;SDS011;24023;51.280;7.148;2023-09-19T13:30:10;4.0;;;1.2;;
38220;SDS011;24023;51.280;7.148;2023-09-19T13:35:09;4.0;;;1.2;;
38220;SDS011;24023;51.280;7.148;2023-09-19T13:40:08;4.3;;;1.0;;
38220;SDS011;24023;51.280;7.148;2023-09-19T13:45:12;4.3;;;1.0;;
38220;SDS011;24023;51.280;7.148;2023-09-19T13:50:24;4.3;;;1.0;;
38220;SDS011;24023;51.280;7.148;2023-09-19T13:55:07;3.2;;;0.9;;
38220;SDS011;24023;51.280;7.148;2023-09-19T14:00:16;2.9;;;1.1;;
38220;SDS011;24023;51.280;7.148;2023-09-19T14:05:07;2.9;;;1.1;;
38220;SDS011;24023;51.280;7.148;2023-09-19T14:10:09;2.8;;;0.8;;
38220;SDS011;24023;51.280;7.148;2023-09-19T14:15:08;2.8;;;0.8;;
38220;SDS011;24023;51.280;7.148;2023-09-19T14:20:10;2.8;;;0.8;;
38220;SDS011;24023;51.280;7.148;2023-09-19T14:25:07;2.8;;;0.8;;
38220;SDS011;24023;51.280;7.148;2023-09-19T14:30:10;1.7;;;0.6;;
38220;SDS011;24023;51.280;7.148;2023-09-19T14:35:07;1.7;;;0.6;;
38220;SDS011;24023;51.280;7.148;2023-09-19T14:40:09;1.7;;;0.5;;
38220;SDS011;24023;51.280;7.148;2023-09-19T14:45:09;1.7;;;0.5;;
38220;SDS011;24023;51.280;7.148;2023-09-19T14:50:09;2.1;;;0.5;;
38220;SDS011;24023;51.280;7.148;2023-09-19T14:55:09;2.1;;;0.5;;
38220;SDS011;24023;51.280;7.148;2023-09-19T15:00:12;2.9;;;0.5;;
38220;SDS011;24023;51.280;7.148;2023-09-19T15:05:08;2.9;;;0.5;;
38220;SDS011;24023;51.280;7.148;2023-09-19T15:10:10;2.9;;;0.5;;
38220;SDS011;24023;51.280;7.148;2023-09-19T15:15:09;2.9;;;0.7;;
38220;SDS011;24023;51.280;7.148;2023-09-19T15:20:09;3.0;;;0.6;;
38220;SDS011;24023;51.280;7.148;2023-09-19T15:25:07;3.0;;;0.6;;
38220;SDS011;24023;51.280;7.148;2023-09-19T15:30:11;2.1;;;0.4;;
38220;SDS011;24023;51.280;7.148;2023-09-19T15:35:10;2.1;;;0.4;;
38220;SDS011;24023;51.280;7.148;2023-09-19T15:40:11;2.6;;;0.6;;
38220;SDS011;24023;51.280;7.148;2023-09-19T15:45:11;2.6;;;0.6;;
38220;SDS011;24023;51.280;7.148;2023-09-19T15:50:10;2.9;;;0.5;;
38220;SDS011;24023;51.280;7.148;2023-09-19T15:55:07;2.8;;;0.6;;
38220;SDS011;24023;51.280;7.148;2023-09-19T16:00:17;2.8;;;0.6;;
38220;SDS011;24023;51.280;7.148;2023-09-19T16:05:08;3.0;;;0.7;;
38220;SDS011;24023;51.280;7.148;2023-09-19T16:10:09;3.0;;;0.7;;
38220;SDS011;24023;51.280;7.148;2023-09-19T16:15:11;3.0;;;0.7;;
38220;SDS011;24023;51.280;7.148;2023-09-19T16:20:12;4.3;;;0.6;;
38220;SDS011;24023;51.280;7.148;2023-09-19T16:25:07;1.3;;;0.5;;
38220;SDS011;24023;51.280;7.148;2023-09-19T16:30:10;1.3;;;0.5;;
38220;SDS011;24023;51.280;7.148;2023-09-19T16:35:07;2.9;;;0.6;;
38220;SDS011;24023;51.280;7.148;2023-09-19T16:40:09;2.9;;;0.6;;
38220;SDS011;24023;51.280;7.148;2023-09-19T16:45:10;2.9;;;0.6;;
38220;SDS011;24023;51.280;7.148;2023-09-19T16:50:10;2.4;;;0.6;;
38220;SDS011;24023;51.280;7.148;2023-09-19T16:55:07;2.4;;;0.6;;
38220;SDS011;24023;51.280;7.148;2023-09-19T17:00:11;2.0;;;0.6;;
38220;SDS011;24023;51.280;7.148;2023-09-19T17:05:07;3.8;;;0.6;;
38220;SDS011;24023;51.280;7.148;2023-09-19T17:10:09;3.8;;;0.6;;
38220;SDS011;24023;51.280;7.148;2023-09-19T17:15:08;3.8;;;0.6;;
38220;SDS011;24023;51.280;7.148;2023-09-19T17:20:08;3.8;;;0.6;;
38220;SDS011;24023;51.280;7.148;2023-09-19T17:25:07;3.2;;;0.6;;
38220;SDS011;24023;51.280;7.148;2023-09-19T17:30:10;3.2;;;0.6;;
38220;SDS011;24023;51.280;7.148;2023-09-19T17:35:07;3.2;;;0.6;;
38220;SDS011;24023;51.280;7.148;2023-09-19T17:40:11;3.2;;;0.8;;
38220;SDS011;24023;51.280;7.148;2023-09-19T17:45:10;3.2;;;0.8;;
38220;SDS011;24023;51.280;7.148;2023-09-19T17:50:12;2.1;;;0.5;;
38220;SDS011;24023;51.280;7.148;2023-09-19T17:55:07;2.1;;;0.5;;
38220;SDS011;24023;51.280;7.148;2023-09-19T18:00:15;2.1;;;0.5;;
38220;SDS011;24023;51.280;7.148;2023-09-19T18:05:08;1.9;;;0.5;;
38220;SDS011;24023;51.280;7.148;2023-09-19T18:10:08;1.9;;;0.5;;
38220;SDS011;24023;51.280;7.148;2023-09-19T18:15:08;3.1;;;0.7;;
38220;SDS011;24023;51.280;7.148;2023-09-19T18:20:10;3.1;;;0.7;;
38220;SDS011;24023;51.280;7.148;2023-09-19T18:25:07;2.4;;;0.8;;
38220;SDS011;24023;51.280;7.148;2023-09-19T18:30:10;2.4;;;0.8;;
38220;SDS011;24023;51.280;7.148;2023-09-19T18:35:07;3.1;;;0.7;;
38220;SDS011;24023;51.280;7.148;2023-09-19T18:40:11;3.1;;;0.7;;
38220;SDS011;24023;51.280;7.148;2023-09-19T18:45:11;3.1;;;0.7;;
38220;SDS011;24023;51.280;7.148;2023-09-19T18:50:09;1.7;;;0.6;;
38220;SDS011;24023;51.280;7.148;2023-09-19T18:55:10;1.7;;;0.6;;
38220;SDS011;24023;51.280;7.148;2023-09-19T19:00:17;2.6;;;0.9;;
38220;SDS011;24023;51.280;7.148;2023-09-19T19:05:08;2.6;;;0.9;;
38220;SDS011;24023;51.280;7.148;2023-09-19T19:10:08;2.6;;;0.9;;
38220;SDS011;24023;51.280;7.148;2023-09-19T19:15:08;2.3;;;0.8;;
38220;SDS011;24023;51.280;7.148;2023-09-19T19:20:09;2.3;;;0.8;;
38220;SDS011;24023;51.280;7.148;2023-09-19T19:25:07;2.4;;;0.8;;
38220;SDS011;24023;51.280;7.148;2023-09-19T19:30:11;2.4;;;0.8;;
38220;SDS011;24023;51.280;7.148;2023-09-19T19:35:07;3.9;;;0.9;;
38220;SDS011;24023;51.280;7.148;2023-09-19T19:40:09;3.9;;;0.9;;
38220;SDS011;24023;51.280;7.148;2023-09-19T19:45:09;3.9;;;0.9;;
38220;SDS011;24023;51.280;7.148;2023-09-19T19:50:09;3.0;;;0.9;;
38220;SDS011;24023;51.280;7.148;2023-09-19T19:55:07;3.0;;;0.9;;
38220;SDS011;24023;51.280;7.148;2023-09-19T20:00:18;4.0;;;0.9;;
38220;SDS011;24023;51.280;7.148;2023-09-19T20:05:07;2.4;;;0.9;;
38220;SDS011;24023;51.280;7.148;2023-09-19T20:10:09;2.4;;;0.9;;
38220;SDS011;24023;51.280;7.148;2023-09-19T20:15:10;2.4;;;0.9;;
38220;SDS011;24023;51.280;7.148;2023-09-19T20:20:15;2.5;;;0.9;;
38220;SDS011;24023;51.280;7.148;2023-09-19T20:25:08;2.5;;;0.9;;
38220;SDS011;24023;51.280;7.148;2023-09-19T20:30:13;2.0;;;0.8;;
38220;SDS011;24023;51.280;7.148;2023-09-19T20:35:07;3.9;;;1.0;;
38220;SDS011;24023;51.280;7.148;2023-09-19T20:40:10;3.9;;;1.0;;
38220;SDS011;24023;51.280;7.148;2023-09-19T20:45:13;3.9;;;1.0;;
38220;SDS011;24023;51.280;7.148;2023-09-19T20:50:09;4.6;;;1.4;;
38220;SDS011;24023;51.280;7.148;2023-09-19T20:55:08;4.6;;;1.4;;
38220;SDS011;24023;51.280;7.148;2023-09-19T21:00:11;3.7;;;0.9;;
38220;SDS011;24023;51.280;7.148;2023-09-19T21:05:07;3.7;;;0.9;;
38220;SDS011;24023;51.280;7.148;2023-09-19T21:10:09;3.7;;;0.9;;
38220;SDS011;24023;51.280;7.148;2023-09-19T21:15:08;2.5;;;0.8;;
38220;SDS011;24023;51.280;7.148;2023-09-19T21:20:11;2.5;;;0.8;;
38220;SDS011;24023;51.280;7.148;2023-09-19T21:25:08;3.6;;;1.0;;
38220;SDS011;24023;51.280;7.148;2023-09-19T21:30:11;3.6;;;1.0;;
38220;SDS011;24023;51.280;7.148;2023-09-19T21:35:08;3.6;;;1.0;;
38220;SDS011;24023;51.280;7.148;2023-09-19T21:40:08;3.3;;;1.1;;
38220;SDS011;24023;51.280;7.148;2023-09-19T21:45:09;3.3;;;1.1;;
38220;SDS011;24023;51.280;7.148;2023-09-19T21:50:09;3.1;;;1.0;;
38220;SDS011;24023;51.280;7.148;2023-09-19T21:55:07;3.1;;;1.0;;
38220;SDS011;24023;51.280;7.148;2023-09-19T22:00:34;2.8;;;0.9;;
38220;SDS011;24023;51.280;7.148;2023-09-19T22:05:09;2.8;;;0.9;;
38220;SDS011;24023;51.280;7.148;2023-09-19T22:10:09;2.8;;;0.9;;
38220;SDS011;24023;51.280;7.148;2023-09-19T22:15:12;2.7;;;1.0;;
38220;SDS011;24023;51.280;7.148;2023-09-19T22:20:25;2.7;;;1.0;;
38220;SDS011;24023;51.280;7.148;2023-09-19T22:25:07;4.1;;;1.0;;
38220;SDS011;24023;51.280;7.148;2023-09-19T22:30:12;4.1;;;1.0;;
38220;SDS011;24023;51.280;7.148;2023-09-19T22:35:07;4.1;;;1.0;;
38220;SDS011;24023;51.280;7.148;2023-09-19T22:40:17;4.4;;;0.9;;
38220;SDS011;24023;51.280;7.148;2023-09-19T22:45:12;4.4;;;0.9;;
38220;SDS011;24023;51.280;7.148;2023-09-19T22:50:09;3.2;;;1.0;;
38220;SDS011;24023;51.280;7.148;2023-09-19T22:55:09;3.2;;;1.0;;
38220;SDS011;24023;51.280;7.148;2023-09-19T23:00:15;3.2;;;1.0;;
38220;SDS011;24023;51.280;7.148;2023-09-19T23:05:14;2.6;;;1.0;;
38220;SDS011;24023;51.280;7.148;2023-09-19T23:10:10;2.6;;;1.0;;
38220;SDS011;24023;51.280;7.148;2023-09-19T23:15:11;3.1;;;1.2;;
38220;SDS011;24023;51.280;7.148;2023-09-19T23:20:10;3.1;;;1.2;;
38220;SDS011;24023;51.280;7.148;2023-09-19T23:25:12;3.1;;;1.2;;
38220;SDS011;24023;51.280;7.148;2023-09-19T23:30:10;4.4;;;1.2;;
38220;SDS011;24023;51.280;7.148;2023-09-19T23:35:08;4.4;;;1.2;;
38220;SDS011;24023;51.280;7.148;2023-09-19T23:40:10;2.7;;;1.2;;
38220;SDS011;24023;51.280;7.148;2023-09-19T23:45:11;2.7;;;1.2;;
38220;SDS011;24023;51.280;7.148;2023-09-19T23:50:09;3.6;;;1.1;;
38220;SDS011;24023;51.280;7.148;2023-09-19T23:55:10;3.6;;;1.1;;
